createdAt,value
2017-10-13T00:01:22.107Z,93.80
2017-10-13T00:03:50.343Z,93.80
2017-10-13T00:06:19.379Z,93.80
2017-10-13T00:08:47.635Z,93.80
2017-10-13T00:11:15.878Z,93.90
2017-10-13T00:13:44.911Z,93.90
2017-10-13T00:16:13.211Z,93.90
2017-10-13T00:18:41.469Z,94.00
2017-10-13T00:21:09.721Z,94.00
2017-10-13T00:23:37.984Z,94.00
2017-10-13T00:26:06.335Z,94.00
2017-10-13T00:28:34.618Z,94.00
2017-10-13T00:31:02.869Z,93.80
2017-10-13T00:33:31.588Z,93.70
2017-10-13T00:35:59.837Z,93.50
2017-10-13T00:38:28.862Z,93.40
2017-10-13T00:40:57.148Z,93.30
2017-10-13T00:43:25.404Z,93.30
2017-10-13T00:45:53.651Z,93.30
2017-10-13T00:48:21.910Z,93.30
2017-10-13T00:50:50.167Z,93.30
2017-10-13T00:53:18.427Z,93.30
2017-10-13T00:55:46.933Z,93.30
2017-10-13T00:58:15.225Z,93.30
2017-10-13T01:00:43.494Z,93.30
2017-10-13T01:03:11.779Z,93.20
2017-10-13T01:05:40.055Z,93.30
2017-10-13T01:08:08.311Z,93.20
2017-10-13T01:10:37.435Z,93.20
2017-10-13T01:13:05.694Z,93.20
2017-10-13T01:15:34.706Z,93.20
2017-10-13T01:18:03.615Z,93.20
2017-10-13T01:20:31.892Z,93.30
2017-10-13T01:23:00.177Z,93.20
2017-10-13T01:25:28.437Z,93.30
2017-10-13T01:27:56.728Z,93.40
2017-10-13T01:30:25.918Z,93.40
2017-10-13T01:32:54.163Z,93.50
2017-10-13T01:35:23.187Z,93.70
2017-10-13T01:37:51.439Z,94.00
2017-10-13T01:40:20.490Z,93.80
2017-10-13T01:42:49.015Z,93.80
2017-10-13T01:45:17.250Z,93.80
2017-10-13T01:47:45.499Z,93.70
2017-10-13T01:50:14.513Z,93.80
2017-10-13T01:52:42.755Z,93.70
2017-10-13T01:55:11.094Z,93.90
2017-10-13T01:57:39.349Z,94.00
2017-10-13T02:00:08.476Z,94.20
2017-10-13T02:02:36.721Z,94.20
2017-10-13T02:05:05.747Z,94.20
2017-10-13T02:07:34.039Z,94.20
2017-10-13T02:10:02.319Z,94.30
2017-10-13T02:12:30.555Z,94.40
2017-10-13T02:14:59.589Z,94.60
2017-10-13T02:17:27.854Z,94.60
2017-10-13T02:19:56.864Z,94.70
2017-10-13T02:22:25.115Z,94.70
2017-10-13T02:24:54.174Z,94.90
2017-10-13T02:27:22.419Z,94.90
2017-10-13T02:29:50.746Z,95.10
2017-10-13T02:32:19.011Z,95.30
2017-10-13T02:34:47.286Z,95.30
2017-10-13T02:37:15.538Z,95.30
2017-10-13T02:39:43.861Z,95.50
2017-10-13T02:42:12.110Z,95.70
2017-10-13T02:44:41.442Z,95.90
2017-10-13T02:47:09.718Z,95.90
2017-10-13T02:49:37.966Z,96.00
2017-10-13T02:52:07.005Z,96.30
2017-10-13T02:54:35.281Z,96.30
2017-10-13T02:57:03.536Z,96.50
2017-10-13T02:59:32.548Z,96.80
2017-10-13T03:02:00.849Z,96.80
2017-10-13T03:04:29.131Z,96.80
2017-10-13T03:06:57.393Z,97.00
2017-10-13T03:09:25.687Z,97.00
2017-10-13T03:11:53.946Z,97.10
2017-10-13T03:14:22.248Z,97.10
2017-10-13T03:16:50.535Z,97.00
2017-10-13T03:19:18.771Z,97.00
2017-10-13T03:21:47.806Z,97.20
2017-10-13T03:24:16.044Z,97.20
2017-10-13T03:26:45.086Z,97.30
2017-10-13T03:29:13.326Z,97.20
2017-10-13T03:31:42.424Z,97.40
2017-10-13T03:34:11.468Z,97.60
2017-10-13T03:36:39.722Z,97.50
2017-10-13T03:39:08.749Z,97.80
2017-10-13T03:41:37.030Z,97.80
2017-10-13T03:44:05.298Z,98.30
2017-10-13T03:46:33.545Z,98.10
2017-10-13T03:49:02.577Z,98.60
2017-10-13T03:51:30.874Z,98.20
2017-10-13T03:53:59.140Z,98.30
2017-10-13T03:56:27.385Z,98.30
2017-10-13T03:58:55.655Z,98.30
2017-10-13T04:01:23.902Z,98.40
2017-10-13T04:03:52.160Z,98.60
2017-10-13T04:06:20.413Z,98.60
2017-10-13T04:08:49.438Z,98.80
2017-10-13T04:11:17.688Z,98.80
2017-10-13T04:13:46.720Z,99.10
2017-10-13T04:16:14.970Z,99.00
2017-10-13T04:18:44.182Z,99.00
2017-10-13T04:21:13.188Z,98.90
2017-10-13T04:23:41.472Z,98.90
2017-10-13T04:26:10.346Z,98.90
2017-10-13T04:28:39.371Z,99.00
2017-10-13T04:31:07.618Z,98.90
2017-10-13T04:33:35.881Z,98.90
2017-10-13T04:36:04.136Z,98.80
2017-10-13T04:38:32.412Z,98.80
2017-10-13T04:41:00.708Z,98.70
2017-10-13T04:43:28.970Z,98.50
2017-10-13T04:45:57.232Z,98.50
2017-10-13T04:48:26.246Z,98.60
2017-10-13T04:50:54.555Z,98.60
2017-10-13T04:53:22.816Z,98.60
2017-10-13T04:55:51.071Z,98.60
2017-10-13T04:58:19.321Z,98.40
2017-10-13T05:00:47.658Z,98.20
2017-10-13T05:03:15.902Z,97.90
2017-10-13T05:05:44.922Z,97.70
2017-10-13T05:08:13.166Z,97.70
2017-10-13T05:10:41.436Z,97.80
2017-10-13T05:13:09.788Z,97.90
2017-10-13T05:15:38.080Z,98.00
2017-10-13T05:18:06.319Z,98.00
2017-10-13T05:20:35.342Z,98.20
2017-10-13T05:23:03.594Z,98.20
2017-10-13T05:25:32.623Z,98.50
2017-10-13T05:28:00.864Z,98.40
2017-10-13T05:30:38.783Z,98.80
2017-10-13T05:33:09.268Z,98.90
2017-10-13T05:35:37.542Z,99.00
2017-10-13T05:38:05.799Z,99.30
2017-10-13T05:40:34.090Z,99.50
2017-10-13T05:43:02.366Z,99.60
2017-10-13T05:45:30.632Z,99.90
2017-10-13T05:47:58.883Z,99.90
2017-10-13T05:50:27.216Z,99.90
2017-10-13T05:52:55.468Z,99.90
2017-10-13T05:55:23.742Z,99.90
2017-10-13T05:57:52.755Z,99.90
2017-10-13T06:00:21.039Z,99.90
2017-10-13T06:02:49.287Z,99.90
2017-10-13T06:05:18.303Z,99.90
2017-10-13T06:07:47.334Z,99.90
2017-10-13T06:10:15.582Z,99.90
2017-10-13T06:12:44.721Z,99.90
2017-10-13T06:15:12.971Z,99.90
2017-10-13T06:17:41.251Z,99.90
2017-10-13T06:20:09.504Z,99.90
2017-10-13T06:22:37.767Z,99.90
2017-10-13T06:25:06.028Z,99.70
2017-10-13T06:27:34.299Z,99.80
2017-10-13T06:30:02.556Z,99.80
2017-10-13T06:32:30.870Z,99.80
2017-10-13T06:34:59.210Z,99.90
2017-10-13T06:37:28.322Z,99.90
2017-10-13T06:39:57.351Z,99.90
2017-10-13T06:42:25.638Z,99.90
2017-10-13T06:44:53.926Z,99.90
2017-10-13T06:47:22.408Z,99.90
2017-10-13T06:49:50.682Z,99.90
2017-10-13T06:52:18.958Z,99.90
2017-10-13T06:54:47.251Z,99.90
2017-10-13T06:57:15.534Z,99.90
2017-10-13T06:59:43.786Z,99.90
2017-10-13T07:02:12.127Z,99.90
2017-10-13T07:04:40.389Z,99.90
2017-10-13T07:07:08.666Z,99.90
2017-10-13T07:09:37.227Z,99.90
2017-10-13T07:12:05.498Z,99.90
2017-10-13T07:14:33.755Z,99.90
2017-10-13T07:17:02.783Z,99.90
2017-10-13T07:19:31.038Z,99.90
2017-10-13T07:21:59.338Z,99.90
2017-10-13T07:24:27.618Z,99.90
2017-10-13T07:26:55.881Z,99.90
2017-10-13T07:29:24.164Z,99.90
2017-10-13T07:31:52.483Z,99.90
2017-10-13T07:34:20.760Z,99.90
2017-10-13T07:36:49.024Z,99.90
2017-10-13T07:39:18.146Z,99.90
2017-10-13T07:41:46.410Z,99.60
2017-10-13T07:44:15.736Z,99.60
2017-10-13T07:46:43.978Z,99.70
2017-10-13T07:49:12.267Z,99.40
2017-10-13T07:51:40.522Z,99.20
2017-10-13T07:54:09.570Z,99.00
2017-10-13T07:56:37.819Z,99.00
2017-10-13T07:59:06.135Z,98.80
2017-10-13T08:01:34.386Z,98.60
2017-10-13T08:04:02.660Z,98.40
2017-10-13T08:06:31.690Z,98.20
2017-10-13T08:08:59.956Z,98.20
2017-10-13T08:11:28.210Z,98.30
2017-10-13T08:13:57.239Z,98.20
2017-10-13T08:16:25.499Z,98.20
2017-10-13T08:18:54.527Z,98.40
2017-10-13T08:21:22.775Z,98.40
2017-10-13T08:23:51.818Z,98.50
2017-10-13T08:26:20.106Z,98.50
2017-10-13T08:28:48.369Z,98.50
2017-10-13T08:31:16.632Z,98.40
2017-10-13T08:33:44.938Z,98.30
2017-10-13T08:36:13.206Z,98.10
2017-10-13T08:38:41.493Z,97.80
2017-10-13T08:41:09.755Z,97.70
2017-10-13T08:43:38.015Z,97.60
2017-10-13T08:46:06.323Z,97.50
2017-10-13T08:48:34.611Z,97.50
2017-10-13T08:51:02.870Z,97.30
2017-10-13T08:53:31.124Z,97.30
2017-10-13T08:56:00.156Z,97.20
2017-10-13T08:58:28.451Z,97.20
2017-10-13T09:00:56.753Z,97.20
2017-10-13T09:03:25.002Z,97.30
2017-10-13T09:05:53.276Z,97.50
2017-10-13T09:08:21.526Z,97.40
2017-10-13T09:10:50.561Z,97.60
2017-10-13T09:13:18.814Z,97.60
2017-10-13T09:15:48.430Z,97.10
2017-10-13T09:18:17.443Z,97.40
2017-10-13T09:20:45.748Z,97.40
2017-10-13T09:23:15.929Z,97.10
2017-10-13T09:25:44.954Z,96.90
2017-10-13T09:28:13.234Z,96.90
2017-10-13T09:30:42.242Z,96.20
2017-10-13T09:33:10.555Z,96.10
2017-10-13T09:35:39.555Z,95.90
2017-10-13T09:38:07.801Z,96.00
2017-10-13T09:40:36.088Z,96.00
2017-10-13T09:43:04.347Z,95.80
2017-10-13T09:45:33.375Z,94.80
2017-10-13T09:48:01.643Z,94.80
2017-10-13T09:50:29.895Z,94.10
2017-10-13T09:52:58.951Z,93.00
2017-10-13T09:55:27.197Z,92.90
2017-10-13T09:57:55.466Z,92.70
2017-10-13T10:00:24.484Z,92.10
2017-10-13T10:02:52.759Z,92.00
2017-10-13T10:05:21.005Z,91.10
2017-10-13T10:07:49.278Z,90.50
2017-10-13T10:10:17.535Z,90.00
2017-10-13T10:12:45.796Z,90.20
2017-10-13T10:15:14.048Z,90.00
2017-10-13T10:17:43.091Z,89.60
2017-10-13T10:20:11.342Z,89.60
2017-10-13T10:22:39.614Z,89.10
2017-10-13T10:25:08.663Z,89.70
2017-10-13T10:27:36.928Z,89.70
2017-10-13T10:30:05.178Z,89.70
2017-10-13T10:32:33.450Z,89.20
2017-10-13T10:35:02.497Z,89.30
2017-10-13T10:37:30.772Z,89.30
2017-10-13T10:39:59.019Z,89.80
2017-10-13T10:42:28.049Z,90.00
2017-10-13T10:44:56.336Z,90.20
2017-10-13T10:47:24.620Z,89.70
2017-10-13T10:49:52.866Z,89.60
2017-10-13T10:52:21.181Z,88.80
2017-10-13T10:54:49.464Z,88.00
2017-10-13T10:57:17.759Z,87.00
2017-10-13T10:59:46.033Z,87.00
2017-10-13T11:02:14.288Z,86.80
2017-10-13T11:04:42.543Z,85.70
2017-10-13T11:07:11.564Z,84.90
2017-10-13T11:09:39.839Z,84.90
2017-10-13T11:12:08.148Z,85.00
2017-10-13T11:14:36.410Z,85.70
2017-10-13T11:17:04.701Z,85.70
2017-10-13T11:19:32.971Z,85.60
2017-10-13T11:22:01.238Z,84.70
2017-10-13T11:24:30.265Z,84.90
2017-10-13T11:26:58.519Z,84.90
2017-10-13T11:29:26.790Z,85.20
2017-10-13T11:31:55.807Z,85.60
2017-10-13T11:34:24.078Z,85.60
2017-10-13T11:36:53.092Z,85.60
2017-10-13T11:39:21.390Z,85.50
2017-10-13T11:41:49.687Z,86.20
2017-10-13T11:44:17.954Z,86.30
2017-10-13T11:46:46.233Z,85.90
2017-10-13T11:49:14.498Z,86.80
2017-10-13T11:51:42.790Z,86.60
2017-10-13T11:54:11.070Z,86.40
2017-10-13T11:56:39.359Z,86.80
2017-10-13T11:59:07.606Z,86.10
2017-10-13T12:01:35.867Z,86.10
2017-10-13T12:04:04.204Z,85.80
2017-10-13T12:06:32.482Z,86.90
2017-10-13T12:09:00.769Z,86.40
2017-10-13T12:11:29.064Z,86.00
2017-10-13T12:13:57.311Z,86.40
2017-10-13T12:16:25.629Z,85.50
2017-10-13T12:18:53.874Z,85.30
2017-10-13T12:21:22.175Z,85.90
2017-10-13T12:23:50.430Z,86.10
2017-10-13T12:26:18.704Z,86.80
2017-10-13T12:28:47.723Z,87.50
2017-10-13T12:31:17.653Z,88.90
2017-10-13T12:33:45.943Z,88.10
2017-10-13T12:36:14.210Z,88.50
2017-10-13T12:38:42.510Z,89.00
2017-10-13T12:41:10.794Z,89.70
2017-10-13T12:43:39.058Z,90.10
2017-10-13T12:46:07.328Z,90.30
2017-10-13T12:48:35.589Z,90.60
2017-10-13T12:51:04.634Z,91.10
2017-10-13T12:53:32.881Z,91.10
2017-10-13T12:56:01.175Z,91.10
2017-10-13T12:58:29.468Z,91.00
2017-10-13T13:00:57.743Z,91.10
2017-10-13T13:03:26.094Z,90.70
2017-10-13T13:05:54.407Z,90.80
2017-10-13T13:08:22.673Z,90.60
2017-10-13T13:10:51.899Z,90.50
2017-10-13T13:13:20.176Z,90.50
2017-10-13T13:15:48.432Z,90.50
2017-10-13T13:18:16.715Z,90.40
2017-10-13T13:20:45.021Z,90.40
2017-10-13T13:23:13.291Z,90.30
2017-10-13T13:25:41.580Z,90.20
2017-10-13T13:28:09.857Z,90.00
2017-10-13T13:30:38.138Z,89.80
2017-10-13T13:33:06.407Z,90.00
2017-10-13T13:35:34.656Z,90.20
2017-10-13T13:38:03.688Z,90.40
2017-10-13T13:40:31.940Z,90.40
2017-10-13T13:43:00.962Z,90.60
2017-10-13T13:45:29.208Z,90.60
2017-10-13T13:47:57.474Z,90.50
2017-10-13T13:50:25.726Z,90.80
2017-10-13T13:52:53.981Z,90.40
2017-10-13T13:55:22.992Z,90.50
2017-10-13T13:57:51.250Z,90.50
2017-10-13T14:00:20.297Z,90.50
2017-10-13T14:02:48.590Z,90.50
2017-10-13T14:05:16.942Z,90.50
2017-10-13T14:07:45.219Z,90.50
2017-10-13T14:10:13.461Z,90.60
2017-10-13T14:12:41.742Z,90.70
2017-10-13T14:15:10.751Z,90.10
2017-10-13T14:17:39.784Z,90.20
2017-10-13T14:20:08.044Z,90.20
2017-10-13T14:22:36.286Z,90.30
2017-10-13T14:25:04.547Z,90.30
2017-10-13T14:27:32.815Z,90.30
2017-10-13T14:30:01.094Z,90.50
2017-10-13T14:32:29.343Z,90.30
2017-10-13T14:34:58.362Z,90.40
2017-10-13T14:37:26.647Z,90.30
2017-10-13T14:39:54.906Z,90.10
2017-10-13T14:42:23.215Z,90.30
2017-10-13T14:44:51.480Z,90.40
2017-10-13T14:47:19.739Z,90.50
2017-10-13T14:49:48.759Z,90.60
2017-10-13T14:52:17.001Z,90.60
2017-10-13T14:54:45.255Z,90.60
2017-10-13T14:57:14.268Z,90.80
2017-10-13T14:59:42.530Z,90.80
2017-10-13T15:02:10.789Z,90.80
2017-10-13T15:04:39.035Z,90.80
2017-10-13T15:07:08.056Z,90.90
2017-10-13T15:09:36.389Z,90.90
2017-10-13T15:12:04.636Z,91.10
2017-10-13T15:14:32.935Z,91.20
2017-10-13T15:17:01.200Z,91.20
2017-10-13T15:19:29.452Z,91.10
2017-10-13T15:21:57.706Z,91.40
2017-10-13T15:24:26.044Z,91.40
2017-10-13T15:26:55.371Z,91.40
2017-10-13T15:29:29.448Z,91.50
2017-10-13T15:32:03.487Z,91.60
2017-10-13T15:34:37.439Z,91.70
2017-10-13T15:37:07.200Z,91.80
2017-10-13T15:39:41.050Z,91.70
2017-10-13T15:42:15.003Z,91.80
2017-10-13T15:44:44.041Z,92.20
2017-10-13T15:47:17.944Z,92.20
2017-10-13T15:52:49.971Z,92.10
2017-10-13T15:55:18.226Z,92.00
2017-10-13T15:57:46.472Z,92.10
2017-10-13T16:00:15.505Z,92.20
2017-10-13T16:02:43.786Z,92.20
2017-10-13T16:05:12.039Z,92.10
2017-10-13T16:07:40.355Z,92.10
2017-10-13T16:10:08.627Z,92.00
2017-10-13T16:12:36.888Z,92.00
2017-10-13T16:15:05.906Z,92.20
2017-10-13T16:17:34.185Z,92.20
2017-10-13T16:20:02.429Z,92.20
2017-10-13T16:22:31.447Z,92.40
2017-10-13T16:24:59.687Z,92.40
2017-10-13T16:27:28.047Z,92.30
2017-10-13T16:29:56.299Z,92.50
2017-10-13T16:32:25.310Z,92.70
2017-10-13T16:34:53.551Z,92.70
2017-10-13T16:37:22.594Z,92.70
2017-10-13T16:39:50.886Z,92.70
2017-10-13T16:42:19.152Z,92.70
2017-10-13T16:44:47.388Z,92.70
2017-10-13T16:47:15.647Z,92.80
2017-10-13T16:49:43.896Z,93.10
2017-10-13T16:52:12.150Z,92.90
2017-10-13T16:54:41.169Z,92.90
2017-10-13T16:57:09.431Z,92.90
2017-10-13T16:59:37.679Z,93.00
2017-10-13T17:02:06.751Z,93.10
2017-10-13T17:04:34.987Z,93.00
2017-10-13T17:07:03.262Z,93.00
2017-10-13T17:09:32.288Z,93.00
2017-10-13T17:12:00.578Z,93.00
2017-10-13T17:14:28.847Z,93.00
2017-10-13T17:16:57.090Z,92.90
2017-10-13T17:19:25.364Z,92.90
2017-10-13T17:21:53.610Z,92.90
2017-10-13T17:24:21.871Z,92.80
2017-10-13T17:26:50.129Z,92.80
2017-10-13T17:29:19.152Z,92.90
2017-10-13T17:31:47.408Z,92.80
2017-10-13T17:34:16.437Z,93.00
2017-10-13T17:36:44.949Z,92.90
2017-10-13T17:39:13.223Z,93.00
2017-10-13T17:41:41.492Z,93.00
2017-10-13T17:44:09.756Z,93.10
2017-10-13T17:46:37.998Z,93.10
2017-10-13T17:49:06.345Z,93.00
2017-10-13T17:51:34.595Z,93.00
2017-10-13T17:54:02.871Z,93.00
2017-10-13T17:56:32.238Z,93.20
2017-10-13T17:59:00.541Z,93.20
2017-10-13T18:01:28.781Z,93.30
2017-10-13T18:03:57.695Z,93.50
2017-10-13T18:06:26.034Z,93.30
2017-10-13T18:08:54.328Z,93.20
2017-10-13T18:11:22.586Z,93.30
2017-10-13T18:13:50.900Z,93.30
2017-10-13T18:16:19.160Z,93.30
2017-10-13T18:18:47.406Z,93.40
2017-10-13T18:21:16.439Z,93.50
2017-10-13T18:23:44.696Z,93.50
2017-10-13T18:26:13.894Z,93.40
2017-10-13T18:28:42.902Z,93.30
2017-10-13T18:31:11.172Z,93.30
2017-10-13T18:33:40.181Z,93.40
2017-10-13T18:36:08.487Z,93.40
2017-10-13T18:38:36.740Z,93.40
2017-10-13T18:41:05.050Z,93.40
2017-10-13T18:43:34.067Z,93.40
2017-10-13T18:46:02.534Z,93.40
2017-10-13T18:48:30.810Z,93.40
2017-10-13T18:50:59.095Z,93.40
2017-10-13T18:53:27.346Z,93.50
2017-10-13T18:55:55.611Z,93.30
2017-10-13T18:58:24.647Z,93.30
2017-10-13T19:00:52.935Z,93.30
2017-10-13T19:03:21.219Z,93.20
2017-10-13T19:05:49.486Z,93.40
2017-10-13T19:08:17.738Z,93.20
2017-10-13T19:10:46.789Z,93.10
2017-10-13T19:13:15.069Z,93.10
2017-10-13T19:15:43.307Z,93.10
2017-10-13T19:18:11.571Z,93.10
2017-10-13T19:20:40.592Z,93.20
2017-10-13T19:23:08.860Z,93.20
2017-10-13T19:25:37.880Z,93.10
2017-10-13T19:28:06.161Z,93.10
2017-10-13T19:30:34.407Z,93.00
2017-10-13T19:33:03.455Z,93.10
2017-10-13T19:35:31.736Z,93.10
2017-10-13T19:38:00.018Z,93.20
2017-10-13T19:40:28.268Z,93.20
2017-10-13T19:42:56.532Z,93.10
2017-10-13T19:45:25.577Z,93.20
2017-10-13T19:47:53.848Z,93.10
2017-10-13T19:50:22.111Z,93.10
2017-10-13T19:52:50.387Z,93.00
2017-10-13T19:55:19.402Z,93.00
2017-10-13T19:57:47.658Z,93.00
2017-10-13T20:00:16.695Z,93.10
2017-10-13T20:02:44.998Z,93.00
2017-10-13T20:05:13.246Z,93.10
2017-10-13T20:07:41.512Z,93.10
2017-10-13T20:10:09.759Z,93.10
2017-10-13T20:12:38.025Z,93.10
2017-10-13T20:15:06.275Z,93.10
2017-10-13T20:17:34.698Z,93.10
2017-10-13T20:20:02.920Z,93.10
2017-10-13T20:22:41.523Z,93.20
2017-10-13T20:25:12.823Z,93.20
2017-10-13T20:27:41.103Z,93.30
2017-10-13T20:30:09.372Z,93.40
2017-10-13T20:32:38.421Z,93.60
2017-10-13T20:35:06.757Z,93.50
2017-10-13T20:37:35.024Z,93.60
2017-10-13T20:40:03.323Z,93.70
2017-10-13T20:42:31.707Z,93.80
2017-10-13T20:44:59.956Z,93.70
2017-10-13T20:47:28.970Z,93.80
2017-10-13T20:49:57.231Z,93.80
2017-10-13T20:52:26.244Z,93.90
2017-10-13T20:54:54.547Z,93.90
2017-10-13T20:57:22.854Z,94.00
2017-10-13T20:59:51.182Z,94.00
2017-10-13T21:02:20.200Z,94.10
2017-10-13T21:04:48.490Z,94.10
2017-10-13T21:07:16.745Z,94.20
2017-10-13T21:09:45.771Z,94.40
2017-10-13T21:12:14.021Z,94.40
2017-10-13T21:14:42.327Z,94.40
2017-10-13T21:17:10.580Z,94.40
2017-10-13T21:19:38.854Z,94.40
2017-10-13T21:22:07.874Z,94.60
2017-10-13T21:24:36.147Z,94.60
2017-10-13T21:27:05.161Z,94.70
2017-10-13T21:29:33.432Z,94.70
2017-10-13T21:32:01.681Z,94.80
2017-10-13T21:34:30.720Z,95.00
2017-10-13T21:36:58.971Z,94.90
2017-10-13T21:39:28.007Z,95.10
2017-10-13T21:41:56.254Z,95.10
2017-10-13T21:44:25.302Z,95.20
2017-10-13T21:46:53.570Z,95.20
2017-10-13T21:49:21.836Z,95.20
2017-10-13T21:51:50.103Z,95.20
2017-10-13T21:54:18.356Z,95.30
2017-10-13T21:56:46.694Z,95.30
2017-10-13T21:59:14.947Z,95.60
2017-10-13T22:01:43.275Z,95.50
2017-10-13T22:04:11.535Z,95.50
2017-10-13T22:06:39.803Z,95.50
2017-10-13T22:09:08.198Z,95.50
2017-10-13T22:11:36.471Z,95.50
2017-10-13T22:14:04.721Z,95.50
2017-10-13T22:16:33.758Z,95.50
2017-10-13T22:19:02.020Z,95.50
2017-10-13T22:21:30.285Z,95.40
2017-10-13T22:23:59.303Z,95.40
2017-10-13T22:26:27.571Z,95.40
2017-10-13T22:28:55.828Z,95.50
2017-10-13T22:31:24.863Z,95.70
2017-10-13T22:33:53.109Z,95.70
2017-10-13T22:36:22.134Z,96.00
2017-10-13T22:38:50.426Z,96.00
2017-10-13T22:41:18.739Z,95.90
2017-10-13T22:43:46.987Z,95.90
2017-10-13T22:46:15.247Z,96.00
2017-10-13T22:48:43.562Z,96.10
2017-10-13T22:51:11.838Z,96.20
2017-10-13T22:53:40.108Z,96.20
2017-10-13T22:56:08.346Z,96.20
2017-10-13T22:58:36.616Z,96.10
2017-10-13T23:01:06.370Z,96.10
2017-10-13T23:03:34.819Z,96.10
2017-10-13T23:06:03.061Z,96.10
2017-10-13T23:08:31.336Z,96.20
2017-10-13T23:10:59.626Z,96.20
2017-10-13T23:13:28.663Z,96.20
2017-10-13T23:15:56.910Z,96.20
2017-10-13T23:18:25.171Z,96.30
2017-10-13T23:20:53.417Z,96.30
2017-10-13T23:23:22.463Z,96.30
2017-10-13T23:25:50.733Z,96.30
2017-10-13T23:28:19.003Z,96.40
2017-10-13T23:30:47.307Z,96.40
2017-10-13T23:33:15.571Z,96.40
2017-10-13T23:35:43.834Z,96.40
2017-10-13T23:38:12.324Z,96.40
2017-10-13T23:40:41.325Z,96.40
2017-10-13T23:43:09.635Z,96.40
2017-10-13T23:45:37.883Z,96.40
2017-10-13T23:48:06.157Z,96.40
2017-10-13T23:50:34.415Z,96.50
2017-10-13T23:53:02.675Z,96.30
2017-10-13T23:55:30.922Z,96.50
2017-10-13T23:57:59.196Z,96.50
